createdAt,value
2023-02-02T00:02:26.732Z,87.56
2023-02-02T00:04:55.005Z,87.56
2023-02-02T00:07:23.344Z,87.44
2023-02-02T00:09:51.557Z,87.63
2023-02-02T00:12:19.950Z,87.54
2023-02-02T00:14:48.378Z,87.10
2023-02-02T00:17:16.550Z,87.12
2023-02-02T00:19:46.988Z,87.10
2023-02-02T00:22:15.830Z,87.07
2023-02-02T00:24:44.050Z,86.52
2023-02-02T00:27:12.544Z,86.06
2023-02-02T00:29:40.926Z,86.09
2023-02-02T00:32:09.242Z,86.11
2023-02-02T00:34:37.450Z,85.57
2023-02-02T00:37:07.008Z,85.56
2023-02-02T00:39:35.509Z,85.71
2023-02-02T00:42:03.964Z,85.66
2023-02-02T00:44:51.599Z,84.97
2023-02-02T00:47:20.192Z,85.22
2023-02-02T00:49:48.834Z,85.39
2023-02-02T00:52:17.147Z,85.16
2023-02-02T00:54:46.376Z,84.83
2023-02-02T00:57:14.973Z,84.04
2023-02-02T00:59:43.292Z,84.34
2023-02-02T01:02:13.224Z,84.49
2023-02-02T01:04:41.632Z,84.65
2023-02-02T01:07:10.130Z,84.76
2023-02-02T01:09:38.470Z,84.85
2023-02-02T01:12:06.938Z,84.67
2023-02-02T01:14:35.222Z,84.62
2023-02-02T01:17:05.468Z,84.63
2023-02-02T01:19:33.885Z,84.66
2023-02-02T01:22:03.511Z,84.57
2023-02-02T01:24:32.157Z,84.73
2023-02-02T01:27:00.534Z,84.71
2023-02-02T01:29:28.733Z,84.82
2023-02-02T01:31:57.165Z,84.80
2023-02-02T01:34:26.366Z,84.74
2023-02-02T01:36:54.780Z,84.78
2023-02-02T01:39:23.066Z,84.81
2023-02-02T01:41:51.463Z,84.84
2023-02-02T01:44:57.562Z,84.91
2023-02-02T01:47:30.723Z,85.00
2023-02-02T01:49:59.622Z,85.14
2023-02-02T01:52:30.423Z,85.23
2023-02-02T01:55:04.662Z,85.41
2023-02-02T01:57:45.428Z,85.39
2023-02-02T02:00:16.117Z,85.43
2023-02-02T02:02:48.656Z,85.55
2023-02-02T02:05:25.751Z,85.69
2023-02-02T02:08:01.446Z,85.74
2023-02-02T02:10:29.853Z,85.81
2023-02-02T02:12:59.820Z,85.88
2023-02-02T02:15:53.236Z,85.78
2023-02-02T02:19:03.438Z,85.73
2023-02-02T02:22:17.373Z,85.72
2023-02-02T02:25:34.931Z,85.61
2023-02-02T02:28:41.144Z,85.63
2023-02-02T02:31:15.631Z,85.78
2023-02-02T02:33:58.263Z,85.96
2023-02-02T02:36:39.177Z,86.02
2023-02-02T02:39:22.050Z,85.99
2023-02-02T02:41:56.136Z,85.99
2023-02-02T02:44:25.696Z,86.14
2023-02-02T02:46:54.466Z,86.31
2023-02-02T02:49:23.110Z,86.41
2023-02-02T02:51:53.603Z,86.44
2023-02-02T02:54:29.489Z,86.51
2023-02-02T02:57:07.271Z,86.76
2023-02-02T02:59:56.824Z,86.96
2023-02-02T03:02:35.929Z,87.26
2023-02-02T03:05:41.897Z,87.16
2023-02-02T03:08:29.140Z,87.27
2023-02-02T03:10:59.623Z,87.17
2023-02-02T03:13:30.880Z,87.41
2023-02-02T03:15:59.816Z,87.63
2023-02-02T03:18:30.779Z,88.01
2023-02-02T03:20:59.635Z,88.10
2023-02-02T03:23:28.536Z,88.18
2023-02-02T03:25:56.998Z,88.17
2023-02-02T03:28:25.793Z,88.17
2023-02-02T03:30:55.530Z,88.35
2023-02-02T03:33:23.973Z,88.52
2023-02-02T03:35:52.066Z,88.84
2023-02-02T03:38:58.719Z,89.13
2023-02-02T03:41:27.102Z,89.34
2023-02-02T03:43:55.590Z,89.23
2023-02-02T03:46:23.909Z,89.26
2023-02-02T03:48:52.369Z,89.22
2023-02-02T03:51:20.676Z,89.37
2023-02-02T03:53:48.930Z,89.71
2023-02-02T03:56:19.318Z,89.71
2023-02-02T03:58:47.618Z,89.98
2023-02-02T04:01:16.106Z,90.00
2023-02-02T04:03:46.474Z,90.09
2023-02-02T04:06:14.891Z,90.37
2023-02-02T04:08:43.685Z,90.55
2023-02-02T04:11:12.473Z,90.51
2023-02-02T04:13:43.498Z,90.77
2023-02-02T04:16:12.807Z,90.91
2023-02-02T04:18:41.290Z,91.03
2023-02-02T04:21:10.294Z,91.04
2023-02-02T04:23:39.013Z,90.95
2023-02-02T04:26:16.342Z,91.01
2023-02-02T04:28:44.988Z,90.98
2023-02-02T04:31:13.379Z,91.09
2023-02-02T04:33:41.649Z,91.36
2023-02-02T04:36:10.598Z,91.24
2023-02-02T04:38:38.810Z,91.25
2023-02-02T04:41:09.431Z,91.25
2023-02-02T04:43:39.137Z,91.27
2023-02-02T04:46:07.867Z,91.29
2023-02-02T04:48:36.408Z,91.32
2023-02-02T04:51:07.924Z,91.32
2023-02-02T04:53:36.763Z,91.45
2023-02-02T04:56:08.019Z,91.43
2023-02-02T04:58:36.693Z,91.55
2023-02-02T05:01:20.871Z,91.68
2023-02-02T05:03:50.727Z,91.88
2023-02-02T05:06:19.778Z,91.85
2023-02-02T05:08:49.105Z,91.84
2023-02-02T05:11:20.653Z,91.99
2023-02-02T05:13:51.873Z,92.16
2023-02-02T05:16:21.543Z,92.18
2023-02-02T05:18:56.847Z,92.21
2023-02-02T05:21:25.413Z,91.99
2023-02-02T05:23:54.837Z,91.79
2023-02-02T05:26:26.838Z,91.65
2023-02-02T05:28:56.307Z,91.54
2023-02-02T05:31:29.412Z,91.38
2023-02-02T05:33:57.777Z,91.16
2023-02-02T05:36:26.171Z,91.12
2023-02-02T05:38:54.656Z,91.03
2023-02-02T05:41:22.971Z,91.02
2023-02-02T05:43:51.325Z,91.13
2023-02-02T05:46:19.759Z,91.00
2023-02-02T05:48:47.996Z,90.95
2023-02-02T05:51:20.715Z,90.97
2023-02-02T05:53:48.880Z,90.95
2023-02-02T05:56:17.215Z,90.96
2023-02-02T05:58:47.479Z,90.98
2023-02-02T06:01:25.646Z,91.04
2023-02-02T06:03:54.017Z,91.02
2023-02-02T06:06:22.341Z,91.06
2023-02-02T06:08:50.957Z,91.19
2023-02-02T06:11:19.605Z,91.16
2023-02-02T06:13:47.973Z,91.30
2023-02-02T06:16:16.394Z,91.78
2023-02-02T06:18:45.354Z,91.88
2023-02-02T06:21:13.820Z,91.99
2023-02-02T06:23:45.794Z,92.03
2023-02-02T06:26:15.393Z,92.04
2023-02-02T06:28:57.180Z,92.00
2023-02-02T06:31:28.117Z,91.95
2023-02-02T06:33:58.813Z,91.93
2023-02-02T06:36:28.213Z,92.07
2023-02-02T06:39:06.711Z,92.27
2023-02-02T06:41:35.795Z,92.29
2023-02-02T06:44:04.769Z,92.45
2023-02-02T06:46:33.001Z,92.41
2023-02-02T06:49:01.650Z,92.53
2023-02-02T06:51:30.047Z,92.63
2023-02-02T06:53:59.615Z,92.54
2023-02-02T06:56:28.102Z,92.49
2023-02-02T06:58:56.602Z,92.48
2023-02-02T07:01:25.281Z,92.50
2023-02-02T07:03:53.794Z,92.52
2023-02-02T07:06:27.083Z,92.58
2023-02-02T07:09:01.696Z,92.52
2023-02-02T07:11:34.692Z,92.40
2023-02-02T07:14:05.138Z,92.33
2023-02-02T07:16:33.718Z,92.30
2023-02-02T07:19:02.202Z,92.26
2023-02-02T07:21:35.902Z,92.25
2023-02-02T07:24:07.670Z,92.25
2023-02-02T07:26:36.476Z,92.28
2023-02-02T07:29:05.596Z,92.33
2023-02-02T07:31:36.337Z,92.22
2023-02-02T07:34:06.849Z,92.13
2023-02-02T07:36:35.731Z,91.98
2023-02-02T07:39:05.537Z,90.97
2023-02-02T07:41:36.072Z,90.26
2023-02-02T07:44:05.434Z,89.64
2023-02-02T07:46:34.818Z,88.77
2023-02-02T07:49:06.345Z,88.36
2023-02-02T07:51:35.053Z,88.20
2023-02-02T07:54:04.938Z,87.32
2023-02-02T07:56:33.595Z,86.70
2023-02-02T07:59:07.926Z,86.44
2023-02-02T08:01:39.233Z,86.02
2023-02-02T08:04:11.210Z,85.07
2023-02-02T08:06:40.724Z,83.82
2023-02-02T08:09:09.756Z,83.35
2023-02-02T08:11:38.770Z,82.95
2023-02-02T08:14:07.887Z,83.06
2023-02-02T08:16:36.310Z,83.23
2023-02-02T08:19:04.734Z,82.91
2023-02-02T08:21:34.600Z,82.99
2023-02-02T08:24:10.233Z,82.99
2023-02-02T08:26:38.734Z,82.53
2023-02-02T08:29:09.282Z,82.38
2023-02-02T08:31:42.915Z,82.77
2023-02-02T08:34:13.051Z,83.44
2023-02-02T08:36:52.237Z,83.71
2023-02-02T08:39:21.963Z,83.86
2023-02-02T08:42:08.100Z,83.97
2023-02-02T08:45:00.277Z,83.87
2023-02-02T08:47:31.828Z,84.51
2023-02-02T08:50:00.917Z,85.28
2023-02-02T08:52:32.542Z,85.68
2023-02-02T08:55:09.408Z,85.71
2023-02-02T08:57:37.885Z,85.35
2023-02-02T09:00:06.934Z,84.96
2023-02-02T09:02:35.522Z,84.82
2023-02-02T09:05:03.927Z,84.75
2023-02-02T09:07:32.334Z,85.28
2023-02-02T09:10:00.908Z,85.61
2023-02-02T09:12:29.749Z,84.52
2023-02-02T09:15:01.566Z,82.75
2023-02-02T09:17:31.110Z,82.66
2023-02-02T09:19:59.601Z,81.86
2023-02-02T09:22:28.983Z,81.84
2023-02-02T09:25:05.194Z,81.55
2023-02-02T09:27:42.879Z,79.72
2023-02-02T09:30:11.928Z,77.86
2023-02-02T09:32:40.188Z,77.34
2023-02-02T09:35:08.934Z,76.27
2023-02-02T09:37:37.350Z,75.80
2023-02-02T09:40:06.166Z,76.06
2023-02-02T09:43:11.706Z,75.69
2023-02-02T09:45:53.663Z,76.42
2023-02-02T09:48:50.897Z,75.88
2023-02-02T09:51:24.424Z,75.46
2023-02-02T09:53:59.163Z,74.93
2023-02-02T09:56:44.138Z,75.48
2023-02-02T09:59:37.461Z,76.00
2023-02-02T10:02:34.759Z,76.39
2023-02-02T10:05:13.053Z,76.73
2023-02-02T10:07:53.300Z,77.40
2023-02-02T10:10:27.899Z,78.49
2023-02-02T10:13:29.182Z,79.49
2023-02-02T10:16:07.736Z,80.30
2023-02-02T10:18:52.044Z,81.13
2023-02-02T10:21:35.745Z,82.02
2023-02-02T10:24:04.664Z,82.69
2023-02-02T10:26:40.122Z,83.04
2023-02-02T10:29:28.063Z,83.57
2023-02-02T10:32:09.889Z,84.05
2023-02-02T10:35:13.939Z,84.08
2023-02-02T10:38:19.095Z,84.27
2023-02-02T10:41:21.140Z,84.03
2023-02-02T10:44:11.981Z,82.52
2023-02-02T10:46:45.428Z,81.96
2023-02-02T10:49:33.819Z,82.16
2023-02-02T10:52:13.995Z,81.03
2023-02-02T10:54:58.905Z,80.31
2023-02-02T10:57:46.934Z,80.46
2023-02-02T11:00:37.063Z,79.94
2023-02-02T11:03:07.296Z,79.60
2023-02-02T11:05:55.271Z,80.53
2023-02-02T11:08:34.013Z,80.47
2023-02-02T11:11:33.009Z,80.04
2023-02-02T11:14:10.570Z,79.65
2023-02-02T11:16:48.343Z,79.95
2023-02-02T11:19:27.826Z,79.53
2023-02-02T11:22:06.851Z,79.56
2023-02-02T11:24:56.509Z,79.02
2023-02-02T11:27:28.775Z,79.03
2023-02-02T11:30:18.253Z,78.10
2023-02-02T11:32:49.749Z,77.63
2023-02-02T11:35:21.990Z,76.63
2023-02-02T11:38:16.160Z,74.87
2023-02-02T11:40:53.101Z,74.63
2023-02-02T11:43:35.145Z,73.82
2023-02-02T11:46:14.475Z,74.09
2023-02-02T11:48:52.934Z,74.39
2023-02-02T11:51:24.137Z,73.98
2023-02-02T11:54:05.370Z,72.96
2023-02-02T11:56:38.576Z,72.38
2023-02-02T11:59:29.926Z,70.94
2023-02-02T12:02:29.547Z,71.70
2023-02-02T12:05:12.213Z,70.14
2023-02-02T12:07:42.907Z,70.12
2023-02-02T12:10:31.397Z,69.74
2023-02-02T12:13:27.578Z,69.45
2023-02-02T12:16:23.827Z,68.37
2023-02-02T12:19:06.074Z,66.66
2023-02-02T12:21:37.216Z,66.81
2023-02-02T12:24:29.283Z,66.93
2023-02-02T12:27:15.819Z,66.77
2023-02-02T12:30:11.979Z,66.86
2023-02-02T12:33:29.863Z,66.67
2023-02-02T12:36:25.597Z,66.41
2023-02-02T12:39:21.861Z,66.64
2023-02-02T12:42:07.473Z,66.82
2023-02-02T12:44:54.285Z,66.74
2023-02-02T12:47:35.949Z,66.34
2023-02-02T12:50:26.965Z,65.85
2023-02-02T12:53:13.323Z,66.06
2023-02-02T12:55:50.501Z,65.59
2023-02-02T12:58:48.778Z,65.45
2023-02-02T13:01:23.536Z,64.68
2023-02-02T13:03:57.813Z,64.42
2023-02-02T13:06:29.007Z,64.19
2023-02-02T13:09:07.940Z,64.18
2023-02-02T13:11:45.940Z,64.21
2023-02-02T13:14:25.585Z,62.74
2023-02-02T13:17:03.660Z,62.87
2023-02-02T13:19:52.249Z,62.49
2023-02-02T13:22:39.408Z,61.89
2023-02-02T13:25:29.211Z,61.71
2023-02-02T13:28:00.936Z,61.04
2023-02-02T13:30:38.542Z,59.75
2023-02-02T13:33:37.929Z,58.54
2023-02-02T13:36:14.677Z,57.96
2023-02-02T13:38:43.661Z,56.85
2023-02-02T13:41:14.101Z,56.04
2023-02-02T13:44:08.883Z,55.35
2023-02-02T13:46:55.584Z,54.93
2023-02-02T13:49:30.564Z,55.47
2023-02-02T13:52:07.992Z,55.41
2023-02-02T13:54:44.825Z,55.56
2023-02-02T13:57:17.390Z,56.57
2023-02-02T14:00:01.176Z,57.13
2023-02-02T14:02:35.535Z,57.80
2023-02-02T14:05:06.640Z,58.51
2023-02-02T14:07:40.869Z,59.03
2023-02-02T14:10:26.695Z,59.74
2023-02-02T14:12:56.418Z,60.41
2023-02-02T14:15:44.186Z,60.89
2023-02-02T14:18:12.671Z,61.07
2023-02-02T14:20:50.491Z,61.49
2023-02-02T14:23:56.521Z,62.10
2023-02-02T14:26:43.651Z,62.49
2023-02-02T14:29:32.483Z,62.96
2023-02-02T14:32:20.794Z,63.34
2023-02-02T14:34:56.827Z,63.29
2023-02-02T14:37:25.070Z,63.50
2023-02-02T14:39:56.378Z,63.78
2023-02-02T14:43:05.139Z,63.95
2023-02-02T14:45:36.565Z,63.54
2023-02-02T14:48:07.899Z,63.69
2023-02-02T14:50:40.829Z,64.13
2023-02-02T14:53:36.319Z,64.18
2023-02-02T14:56:13.919Z,64.37
2023-02-02T14:59:00.557Z,64.62
2023-02-02T15:01:33.181Z,64.85
2023-02-02T15:04:20.026Z,65.26
2023-02-02T15:06:55.090Z,65.48
2023-02-02T15:09:24.622Z,65.60
2023-02-02T15:12:00.817Z,65.71
2023-02-02T15:14:36.269Z,66.05
2023-02-02T15:17:25.132Z,66.31
2023-02-02T15:20:14.644Z,66.43
2023-02-02T15:22:57.962Z,66.63
2023-02-02T15:25:36.024Z,66.71
2023-02-02T15:28:41.801Z,66.93
2023-02-02T15:31:11.098Z,67.07
2023-02-02T15:33:44.103Z,67.14
2023-02-02T15:36:25.512Z,67.38
2023-02-02T15:38:58.596Z,67.58
2023-02-02T15:41:43.850Z,67.76
2023-02-02T15:44:28.213Z,67.91
2023-02-02T15:46:58.261Z,68.03
2023-02-02T15:49:35.054Z,68.25
2023-02-02T15:52:16.224Z,68.46
2023-02-02T15:54:54.075Z,68.52
2023-02-02T15:57:35.316Z,68.76
2023-02-02T16:00:38.677Z,68.86
2023-02-02T16:03:14.795Z,68.94
2023-02-02T16:05:58.658Z,69.10
2023-02-02T16:08:35.625Z,69.23
2023-02-02T16:11:24.184Z,69.29
2023-02-02T16:14:10.573Z,69.80
2023-02-02T16:16:40.455Z,70.38
2023-02-02T16:19:09.960Z,70.67
2023-02-02T16:21:49.741Z,70.93
2023-02-02T16:24:41.659Z,71.41
2023-02-02T16:27:17.339Z,71.72
2023-02-02T16:29:56.174Z,72.06
2023-02-02T16:32:46.255Z,72.34
2023-02-02T16:35:37.629Z,72.52
2023-02-02T16:38:30.481Z,72.59
2023-02-02T16:41:11.341Z,72.75
2023-02-02T16:43:43.292Z,72.67
2023-02-02T16:46:15.594Z,72.69
2023-02-02T16:48:56.128Z,72.79
2023-02-02T16:51:27.857Z,73.19
2023-02-02T16:53:56.061Z,73.37
2023-02-02T16:56:44.359Z,73.82
2023-02-02T16:59:34.341Z,74.09
2023-02-02T17:02:21.492Z,73.96
2023-02-02T17:04:55.886Z,74.07
2023-02-02T17:07:24.736Z,74.10
2023-02-02T17:10:24.151Z,73.97
2023-02-02T17:12:52.674Z,73.92
2023-02-02T17:15:29.331Z,73.89
2023-02-02T17:17:58.603Z,73.82
2023-02-02T17:20:27.728Z,73.80
2023-02-02T17:23:09.989Z,73.90
2023-02-02T17:25:42.746Z,73.90
2023-02-02T17:28:14.479Z,73.81
2023-02-02T17:30:45.419Z,73.77
2023-02-02T17:33:20.106Z,73.86
2023-02-02T17:35:55.712Z,73.96
2023-02-02T17:38:27.829Z,74.09
2023-02-02T17:41:01.248Z,74.15
2023-02-02T17:43:31.646Z,74.16
2023-02-02T17:46:00.261Z,74.15
2023-02-02T17:48:28.614Z,74.36
2023-02-02T17:51:06.443Z,74.53
2023-02-02T17:53:34.982Z,74.55
2023-02-02T17:56:03.188Z,74.62
2023-02-02T17:58:33.779Z,74.72
2023-02-02T18:01:02.697Z,74.76
2023-02-02T18:03:37.726Z,74.77
2023-02-02T18:06:07.882Z,74.98
2023-02-02T18:08:36.577Z,75.07
2023-02-02T18:11:04.977Z,74.89
2023-02-02T18:13:33.362Z,74.76
2023-02-02T18:16:01.891Z,74.92
2023-02-02T18:18:30.823Z,74.98
2023-02-02T18:20:59.376Z,74.86
2023-02-02T18:23:27.845Z,74.78
2023-02-02T18:25:56.267Z,74.82
2023-02-02T18:28:25.121Z,74.85
2023-02-02T18:30:53.736Z,74.93
2023-02-02T18:33:23.492Z,75.03
2023-02-02T18:35:51.738Z,75.13
2023-02-02T18:38:20.082Z,75.28
2023-02-02T18:40:56.719Z,75.33
2023-02-02T18:43:25.136Z,75.38
2023-02-02T18:46:06.300Z,75.38
2023-02-02T18:48:35.955Z,75.38
2023-02-02T18:51:18.414Z,75.44
2023-02-02T18:53:47.997Z,75.37
2023-02-02T18:56:17.539Z,75.28
2023-02-02T18:58:45.821Z,75.40
2023-02-02T19:01:17.102Z,75.39
2023-02-02T19:03:51.188Z,75.53
2023-02-02T19:06:39.645Z,75.63
2023-02-02T19:09:08.883Z,75.76
2023-02-02T19:11:46.376Z,75.75
2023-02-02T19:14:20.619Z,75.84
2023-02-02T19:16:49.072Z,76.05
2023-02-02T19:19:30.175Z,76.41
2023-02-02T19:22:00.558Z,76.83
2023-02-02T19:24:37.429Z,77.16
2023-02-02T19:27:17.251Z,77.51
2023-02-02T19:29:48.570Z,78.38
2023-02-02T19:32:23.264Z,78.92
2023-02-02T19:34:58.725Z,78.75
2023-02-02T19:37:29.260Z,79.61
2023-02-02T19:40:09.547Z,80.97
2023-02-02T19:42:44.169Z,81.90
2023-02-02T19:45:21.495Z,82.36
2023-02-02T19:47:52.941Z,83.43
2023-02-02T19:50:24.537Z,83.65
2023-02-02T19:52:54.734Z,83.74
2023-02-02T19:55:29.332Z,84.05
2023-02-02T19:58:25.345Z,84.09
2023-02-02T20:00:58.931Z,84.79
2023-02-02T20:03:36.267Z,85.97
2023-02-02T20:06:06.802Z,86.72
2023-02-02T20:08:43.541Z,87.03
2023-02-02T20:11:32.247Z,87.21
2023-02-02T20:14:21.646Z,87.27
2023-02-02T20:16:57.639Z,87.96
2023-02-02T20:19:32.035Z,88.08
2023-02-02T20:22:01.311Z,87.88
2023-02-02T20:24:40.775Z,88.30
2023-02-02T20:27:21.372Z,88.54
2023-02-02T20:29:53.209Z,88.40
2023-02-02T20:32:37.288Z,88.47
2023-02-02T20:35:20.599Z,88.73
2023-02-02T20:37:49.327Z,88.97
2023-02-02T20:40:20.589Z,89.35
2023-02-02T20:42:50.320Z,89.71
2023-02-02T20:45:21.645Z,90.05
2023-02-02T20:47:50.541Z,90.30
2023-02-02T20:50:21.565Z,90.55
2023-02-02T20:52:51.880Z,91.09
2023-02-02T20:55:20.284Z,90.89
2023-02-02T20:57:48.561Z,90.96
2023-02-02T21:00:18.029Z,91.47
2023-02-02T21:02:46.178Z,92.23
2023-02-02T21:05:14.855Z,92.33
2023-02-02T21:07:43.000Z,92.55
2023-02-02T21:10:11.302Z,92.87
2023-02-02T21:12:39.438Z,92.93
2023-02-02T21:15:08.928Z,92.83
2023-02-02T21:17:37.215Z,93.34
2023-02-02T21:20:05.877Z,93.53
2023-02-02T21:22:35.989Z,93.79
2023-02-02T21:25:04.350Z,94.15
2023-02-02T21:27:32.580Z,94.51
2023-02-02T21:30:00.835Z,94.49
2023-02-02T21:32:28.983Z,94.57
2023-02-02T21:34:59.061Z,94.99
2023-02-02T21:37:27.195Z,94.93
2023-02-02T21:40:00.074Z,94.91
2023-02-02T21:42:33.453Z,94.67
2023-02-02T21:45:28.469Z,94.65
2023-02-02T21:47:59.329Z,94.62
2023-02-02T21:50:46.365Z,94.74
2023-02-02T21:53:18.049Z,94.46
2023-02-02T21:55:52.442Z,94.29
2023-02-02T21:58:28.224Z,94.34
2023-02-02T22:01:36.936Z,94.47
2023-02-02T22:04:21.258Z,94.84
2023-02-02T22:06:51.703Z,96.11
2023-02-02T22:09:30.783Z,96.82
2023-02-02T22:12:02.209Z,96.93
2023-02-02T22:15:09.245Z,96.83
2023-02-02T22:17:39.980Z,97.04
2023-02-02T22:20:17.480Z,96.79
2023-02-02T22:22:48.357Z,96.52
2023-02-02T22:25:16.401Z,96.66
2023-02-02T22:27:53.404Z,96.86
2023-02-02T22:30:27.763Z,96.71
2023-02-02T22:32:56.245Z,96.87
2023-02-02T22:35:24.509Z,96.94
2023-02-02T22:37:52.728Z,97.03
2023-02-02T22:40:24.597Z,97.40
2023-02-02T22:43:01.639Z,97.71
2023-02-02T22:45:30.027Z,97.61
2023-02-02T22:47:58.415Z,97.42
2023-02-02T22:50:30.479Z,97.45
2023-02-02T22:52:58.906Z,97.80
2023-02-02T22:55:27.518Z,97.79
2023-02-02T22:57:55.692Z,97.81
2023-02-02T23:00:29.433Z,97.73
2023-02-02T23:02:57.840Z,97.84
2023-02-02T23:05:27.588Z,97.62
2023-02-02T23:07:56.126Z,97.35
2023-02-02T23:10:28.195Z,97.02
2023-02-02T23:12:58.752Z,96.65
2023-02-02T23:15:27.675Z,96.31
2023-02-02T23:17:56.102Z,95.96
2023-02-02T23:20:24.879Z,95.56
2023-02-02T23:22:53.403Z,95.26
2023-02-02T23:25:22.302Z,95.21
2023-02-02T23:27:50.582Z,95.06
2023-02-02T23:30:21.247Z,94.99
2023-02-02T23:32:50.447Z,94.93
2023-02-02T23:35:18.608Z,94.86
2023-02-02T23:37:47.319Z,94.89
2023-02-02T23:40:15.529Z,94.84
2023-02-02T23:42:43.882Z,94.71
2023-02-02T23:45:13.182Z,94.55
2023-02-02T23:47:42.629Z,94.26
2023-02-02T23:50:11.943Z,94.10
2023-02-02T23:52:40.675Z,93.69
2023-02-02T23:55:09.823Z,93.33
2023-02-02T23:57:38.392Z,93.07
